sensor_id;sensor_type;location;lat;lon;timestamp;P1;durP1;ratioP1;P2;durP2;ratioP2
23236;SDS011;11787;52.018;8.570;2023-11-21T02:48:09;11.98;;;5.07;;
23236;SDS011;11787;52.018;8.570;2023-11-21T02:50:34;11.25;;;4.40;;
23236;SDS011;11787;52.018;8.570;2023-11-21T02:53:00;10.18;;;5.05;;
23236;SDS011;11787;52.018;8.570;2023-11-21T02:55:26;8.98;;;4.05;;
23236;SDS011;11787;52.018;8.570;2023-11-21T02:57:52;15.57;;;4.78;;
23236;SDS011;11787;52.018;8.570;2023-11-21T03:00:18;9.68;;;4.63;;
23236;SDS011;11787;52.018;8.570;2023-11-21T03:02:44;14.52;;;4.63;;
23236;SDS011;11787;52.018;8.570;2023-11-21T03:05:10;14.90;;;4.32;;
23236;SDS011;11787;52.018;8.570;2023-11-21T03:07:36;9.15;;;4.78;;
23236;SDS011;11787;52.018;8.570;2023-11-21T03:10:03;10.32;;;4.53;;
23236;SDS011;11787;52.018;8.570;2023-11-21T03:12:29;10.63;;;4.82;;
23236;SDS011;11787;52.018;8.570;2023-11-21T03:14:55;8.93;;;4.45;;
23236;SDS011;11787;52.018;8.570;2023-11-21T03:17:21;10.50;;;4.22;;
23236;SDS011;11787;52.018;8.570;2023-11-21T03:19:46;10.95;;;4.97;;
23236;SDS011;11787;52.018;8.570;2023-11-21T03:22:12;10.32;;;4.85;;
23236;SDS011;11787;52.018;8.570;2023-11-21T03:24:38;10.18;;;5.35;;
23236;SDS011;11787;52.018;8.570;2023-11-21T03:27:04;9.20;;;4.55;;
23236;SDS011;11787;52.018;8.570;2023-11-21T03:29:29;13.63;;;4.72;;
23236;SDS011;11787;52.018;8.570;2023-11-21T03:31:55;15.52;;;5.05;;
23236;SDS011;11787;52.018;8.570;2023-11-21T03:34:25;8.32;;;4.35;;
23236;SDS011;11787;52.018;8.570;2023-11-21T03:36:52;9.95;;;5.28;;
23236;SDS011;11787;52.018;8.570;2023-11-21T03:39:19;10.07;;;4.50;;
23236;SDS011;11787;52.018;8.570;2023-11-21T03:41:45;12.55;;;4.78;;
23236;SDS011;11787;52.018;8.570;2023-11-21T03:44:11;10.05;;;4.25;;
23236;SDS011;11787;52.018;8.570;2023-11-21T03:46:36;8.50;;;4.07;;
23236;SDS011;11787;52.018;8.570;2023-11-21T03:49:02;8.00;;;4.03;;
23236;SDS011;11787;52.018;8.570;2023-11-21T03:51:28;9.23;;;3.90;;
23236;SDS011;11787;52.018;8.570;2023-11-21T03:53:53;11.18;;;4.18;;
23236;SDS011;11787;52.018;8.570;2023-11-21T03:56:19;10.82;;;4.22;;
23236;SDS011;11787;52.018;8.570;2023-11-21T03:58:48;10.55;;;5.03;;
23236;SDS011;11787;52.018;8.570;2023-11-21T04:01:20;9.73;;;4.55;;
23236;SDS011;11787;52.018;8.570;2023-11-21T04:03:47;10.90;;;4.35;;
23236;SDS011;11787;52.018;8.570;2023-11-21T04:06:13;10.55;;;4.93;;
23236;SDS011;11787;52.018;8.570;2023-11-21T04:08:39;10.75;;;5.05;;
23236;SDS011;11787;52.018;8.570;2023-11-21T04:11:04;10.02;;;4.60;;
23236;SDS011;11787;52.018;8.570;2023-11-21T04:13:30;10.95;;;5.25;;
23236;SDS011;11787;52.018;8.570;2023-11-21T04:15:56;12.43;;;4.03;;
23236;SDS011;11787;52.018;8.570;2023-11-21T04:18:21;14.10;;;5.32;;
23236;SDS011;11787;52.018;8.570;2023-11-21T04:20:50;13.20;;;5.57;;
23236;SDS011;11787;52.018;8.570;2023-11-21T04:23:15;14.73;;;5.10;;
23236;SDS011;11787;52.018;8.570;2023-11-21T04:25:41;13.43;;;4.97;;
23236;SDS011;11787;52.018;8.570;2023-11-21T04:28:07;13.85;;;5.85;;
23236;SDS011;11787;52.018;8.570;2023-11-21T04:30:33;15.45;;;5.60;;
23236;SDS011;11787;52.018;8.570;2023-11-21T04:32:58;13.10;;;5.22;;
23236;SDS011;11787;52.018;8.570;2023-11-21T04:35:24;14.38;;;6.43;;
23236;SDS011;11787;52.018;8.570;2023-11-21T04:37:49;11.35;;;5.45;;
23236;SDS011;11787;52.018;8.570;2023-11-21T04:40:16;17.13;;;6.05;;
23236;SDS011;11787;52.018;8.570;2023-11-21T04:42:42;13.30;;;6.15;;
23236;SDS011;11787;52.018;8.570;2023-11-21T04:45:07;21.52;;;6.70;;
23236;SDS011;11787;52.018;8.570;2023-11-21T04:47:34;17.17;;;7.72;;
23236;SDS011;11787;52.018;8.570;2023-11-21T04:50:00;19.35;;;6.13;;
23236;SDS011;11787;52.018;8.570;2023-11-21T04:52:28;11.98;;;6.53;;
23236;SDS011;11787;52.018;8.570;2023-11-21T04:54:53;16.08;;;6.95;;
23236;SDS011;11787;52.018;8.570;2023-11-21T04:57:19;11.63;;;6.10;;
23236;SDS011;11787;52.018;8.570;2023-11-21T04:59:45;14.60;;;7.40;;
23236;SDS011;11787;52.018;8.570;2023-11-21T05:02:11;20.42;;;8.45;;
23236;SDS011;11787;52.018;8.570;2023-11-21T05:04:37;14.10;;;6.35;;
23236;SDS011;11787;52.018;8.570;2023-11-21T05:07:03;15.98;;;7.80;;
23236;SDS011;11787;52.018;8.570;2023-11-21T05:09:28;17.35;;;7.28;;
23236;SDS011;11787;52.018;8.570;2023-11-21T05:11:57;16.17;;;7.07;;
23236;SDS011;11787;52.018;8.570;2023-11-21T05:14:23;21.08;;;7.53;;
23236;SDS011;11787;52.018;8.570;2023-11-21T05:16:48;14.38;;;7.90;;
23236;SDS011;11787;52.018;8.570;2023-11-21T05:19:15;19.00;;;8.07;;
23236;SDS011;11787;52.018;8.570;2023-11-21T05:21:41;14.23;;;7.03;;
23236;SDS011;11787;52.018;8.570;2023-11-21T05:24:07;18.35;;;7.45;;
23236;SDS011;11787;52.018;8.570;2023-11-21T05:26:32;22.42;;;8.23;;
23236;SDS011;11787;52.018;8.570;2023-11-21T05:28:58;15.98;;;6.50;;
23236;SDS011;11787;52.018;8.570;2023-11-21T05:31:24;18.10;;;7.18;;
23236;SDS011;11787;52.018;8.570;2023-11-21T05:33:49;17.65;;;7.60;;
23236;SDS011;11787;52.018;8.570;2023-11-21T05:36:15;14.85;;;7.35;;
23236;SDS011;11787;52.018;8.570;2023-11-21T05:38:40;13.63;;;7.38;;
23236;SDS011;11787;52.018;8.570;2023-11-21T05:41:06;15.25;;;6.40;;
23236;SDS011;11787;52.018;8.570;2023-11-21T05:43:33;16.40;;;6.70;;
23236;SDS011;11787;52.018;8.570;2023-11-21T05:46:00;12.77;;;6.00;;
23236;SDS011;11787;52.018;8.570;2023-11-21T05:48:26;13.48;;;6.32;;
23236;SDS011;11787;52.018;8.570;2023-11-21T05:50:51;11.38;;;5.75;;
23236;SDS011;11787;52.018;8.570;2023-11-21T05:53:17;13.35;;;6.75;;
23236;SDS011;11787;52.018;8.570;2023-11-21T05:55:43;10.95;;;5.72;;
23236;SDS011;11787;52.018;8.570;2023-11-21T05:58:08;19.38;;;6.43;;
23236;SDS011;11787;52.018;8.570;2023-11-21T06:00:34;16.88;;;6.88;;
23236;SDS011;11787;52.018;8.570;2023-11-21T06:03:01;16.58;;;7.25;;
23236;SDS011;11787;52.018;8.570;2023-11-21T06:05:26;15.63;;;6.28;;
23236;SDS011;11787;52.018;8.570;2023-11-21T06:07:52;12.65;;;5.47;;
23236;SDS011;11787;52.018;8.570;2023-11-21T06:10:20;11.90;;;6.20;;
23236;SDS011;11787;52.018;8.570;2023-11-21T06:12:46;11.88;;;5.95;;
23236;SDS011;11787;52.018;8.570;2023-11-21T06:15:12;18.83;;;5.32;;
23236;SDS011;11787;52.018;8.570;2023-11-21T06:17:41;13.50;;;5.75;;
23236;SDS011;11787;52.018;8.570;2023-11-21T06:20:08;9.63;;;5.25;;
23236;SDS011;11787;52.018;8.570;2023-11-21T06:22:36;10.43;;;5.32;;
23236;SDS011;11787;52.018;8.570;2023-11-21T06:25:02;11.48;;;5.18;;
23236;SDS011;11787;52.018;8.570;2023-11-21T06:27:29;15.27;;;6.55;;
23236;SDS011;11787;52.018;8.570;2023-11-21T06:29:56;15.25;;;6.10;;
23236;SDS011;11787;52.018;8.570;2023-11-21T06:32:21;16.95;;;5.43;;
23236;SDS011;11787;52.018;8.570;2023-11-21T06:34:47;13.57;;;5.40;;
23236;SDS011;11787;52.018;8.570;2023-11-21T06:37:14;22.35;;;6.85;;
23236;SDS011;11787;52.018;8.570;2023-11-21T06:39:40;18.15;;;5.78;;
23236;SDS011;11787;52.018;8.570;2023-11-21T06:42:06;15.40;;;6.25;;
23236;SDS011;11787;52.018;8.570;2023-11-21T06:44:32;11.52;;;5.68;;
23236;SDS011;11787;52.018;8.570;2023-11-21T06:46:58;17.83;;;6.95;;
23236;SDS011;11787;52.018;8.570;2023-11-21T06:49:24;15.48;;;7.35;;
23236;SDS011;11787;52.018;8.570;2023-11-21T06:51:50;13.80;;;6.55;;
23236;SDS011;11787;52.018;8.570;2023-11-21T06:54:16;10.48;;;5.65;;
23236;SDS011;11787;52.018;8.570;2023-11-21T06:56:42;13.90;;;7.03;;
23236;SDS011;11787;52.018;8.570;2023-11-21T06:59:07;14.32;;;7.05;;
23236;SDS011;11787;52.018;8.570;2023-11-21T07:01:34;16.50;;;7.57;;
23236;SDS011;11787;52.018;8.570;2023-11-21T07:04:06;14.10;;;6.70;;
23236;SDS011;11787;52.018;8.570;2023-11-21T07:06:32;11.82;;;6.18;;
23236;SDS011;11787;52.018;8.570;2023-11-21T07:08:57;16.73;;;6.78;;
23236;SDS011;11787;52.018;8.570;2023-11-21T07:11:23;13.43;;;7.03;;
23236;SDS011;11787;52.018;8.570;2023-11-21T07:13:50;11.77;;;5.25;;
23236;SDS011;11787;52.018;8.570;2023-11-21T07:16:16;13.20;;;6.65;;
23236;SDS011;11787;52.018;8.570;2023-11-21T07:18:41;11.55;;;5.40;;
23236;SDS011;11787;52.018;8.570;2023-11-21T07:21:07;14.40;;;6.22;;
23236;SDS011;11787;52.018;8.570;2023-11-21T07:23:33;16.00;;;6.97;;
23236;SDS011;11787;52.018;8.570;2023-11-21T07:25:59;12.70;;;5.75;;
23236;SDS011;11787;52.018;8.570;2023-11-21T07:28:24;13.98;;;6.15;;
23236;SDS011;11787;52.018;8.570;2023-11-21T07:30:50;12.95;;;6.25;;
23236;SDS011;11787;52.018;8.570;2023-11-21T07:33:17;12.95;;;5.78;;
23236;SDS011;11787;52.018;8.570;2023-11-21T07:35:42;22.77;;;6.60;;
23236;SDS011;11787;52.018;8.570;2023-11-21T07:38:08;17.92;;;6.88;;
23236;SDS011;11787;52.018;8.570;2023-11-21T07:40:33;17.85;;;8.18;;
23236;SDS011;11787;52.018;8.570;2023-11-21T07:42:59;13.45;;;6.57;;
23236;SDS011;11787;52.018;8.570;2023-11-21T07:45:25;14.90;;;4.95;;
23236;SDS011;11787;52.018;8.570;2023-11-21T07:47:52;11.80;;;6.03;;
23236;SDS011;11787;52.018;8.570;2023-11-21T07:50:19;18.40;;;6.03;;
23236;SDS011;11787;52.018;8.570;2023-11-21T07:52:45;14.93;;;5.45;;
23236;SDS011;11787;52.018;8.570;2023-11-21T07:55:11;13.05;;;6.05;;
23236;SDS011;11787;52.018;8.570;2023-11-21T07:57:36;14.68;;;6.03;;
23236;SDS011;11787;52.018;8.570;2023-11-21T08:00:03;14.73;;;5.60;;
23236;SDS011;11787;52.018;8.570;2023-11-21T08:02:34;11.38;;;5.30;;
23236;SDS011;11787;52.018;8.570;2023-11-21T08:04:59;16.02;;;5.07;;
23236;SDS011;11787;52.018;8.570;2023-11-21T08:07:25;10.45;;;5.00;;
23236;SDS011;11787;52.018;8.570;2023-11-21T08:09:51;12.30;;;5.63;;
23236;SDS011;11787;52.018;8.570;2023-11-21T08:12:17;12.30;;;5.40;;
23236;SDS011;11787;52.018;8.570;2023-11-21T08:14:45;14.15;;;5.07;;
23236;SDS011;11787;52.018;8.570;2023-11-21T08:17:10;14.27;;;5.53;;
23236;SDS011;11787;52.018;8.570;2023-11-21T08:19:36;14.02;;;5.88;;
23236;SDS011;11787;52.018;8.570;2023-11-21T08:22:02;14.23;;;5.45;;
23236;SDS011;11787;52.018;8.570;2023-11-21T08:24:28;12.15;;;5.63;;
23236;SDS011;11787;52.018;8.570;2023-11-21T08:26:54;15.52;;;6.45;;
23236;SDS011;11787;52.018;8.570;2023-11-21T08:29:20;13.50;;;5.70;;
23236;SDS011;11787;52.018;8.570;2023-11-21T08:31:45;12.15;;;6.00;;
23236;SDS011;11787;52.018;8.570;2023-11-21T08:34:14;9.85;;;4.75;;
23236;SDS011;11787;52.018;8.570;2023-11-21T08:36:43;12.63;;;5.25;;
23236;SDS011;11787;52.018;8.570;2023-11-21T08:39:10;15.10;;;5.20;;
23236;SDS011;11787;52.018;8.570;2023-11-21T08:41:36;11.00;;;5.10;;
23236;SDS011;11787;52.018;8.570;2023-11-21T08:44:02;11.98;;;5.38;;
23236;SDS011;11787;52.018;8.570;2023-11-21T08:46:31;10.60;;;4.30;;
23236;SDS011;11787;52.018;8.570;2023-11-21T08:48:58;12.60;;;5.22;;
23236;SDS011;11787;52.018;8.570;2023-11-21T08:51:26;11.73;;;5.45;;
23236;SDS011;11787;52.018;8.570;2023-11-21T08:53:51;10.27;;;4.95;;
23236;SDS011;11787;52.018;8.570;2023-11-21T08:56:17;10.40;;;4.53;;
23236;SDS011;11787;52.018;8.570;2023-11-21T08:58:44;8.40;;;4.22;;
23236;SDS011;11787;52.018;8.570;2023-11-21T09:01:11;10.57;;;4.43;;
23236;SDS011;11787;52.018;8.570;2023-11-21T09:03:37;7.03;;;3.33;;
23236;SDS011;11787;52.018;8.570;2023-11-21T09:06:03;11.50;;;4.57;;
23236;SDS011;11787;52.018;8.570;2023-11-21T09:08:29;10.35;;;3.80;;
23236;SDS011;11787;52.018;8.570;2023-11-21T09:10:55;5.28;;;3.40;;
23236;SDS011;11787;52.018;8.570;2023-11-21T09:13:20;8.88;;;2.75;;
23236;SDS011;11787;52.018;8.570;2023-11-21T09:15:46;7.97;;;3.45;;
23236;SDS011;11787;52.018;8.570;2023-11-21T09:18:14;6.57;;;2.78;;
23236;SDS011;11787;52.018;8.570;2023-11-21T09:20:40;4.85;;;2.47;;
23236;SDS011;11787;52.018;8.570;2023-11-21T09:23:09;5.18;;;2.67;;
23236;SDS011;11787;52.018;8.570;2023-11-21T09:25:34;6.28;;;2.70;;
23236;SDS011;11787;52.018;8.570;2023-11-21T09:28:02;5.03;;;2.45;;
23236;SDS011;11787;52.018;8.570;2023-11-21T09:30:33;5.93;;;2.92;;
23236;SDS011;11787;52.018;8.570;2023-11-21T09:33:02;8.50;;;4.15;;
23236;SDS011;11787;52.018;8.570;2023-11-21T09:35:27;9.73;;;3.83;;
23236;SDS011;11787;52.018;8.570;2023-11-21T09:37:53;5.18;;;3.20;;
23236;SDS011;11787;52.018;8.570;2023-11-21T09:40:20;7.20;;;3.97;;
23236;SDS011;11787;52.018;8.570;2023-11-21T09:42:56;10.20;;;5.38;;
23236;SDS011;11787;52.018;8.570;2023-11-21T09:47:54;5.93;;;3.75;;
23236;SDS011;11787;52.018;8.570;2023-11-21T09:50:23;14.32;;;6.80;;
23236;SDS011;11787;52.018;8.570;2023-11-21T09:55:29;7.53;;;4.03;;
23236;SDS011;11787;52.018;8.570;2023-11-21T09:58:01;6.55;;;3.92;;
23236;SDS011;11787;52.018;8.570;2023-11-21T10:00:30;6.20;;;3.08;;
23236;SDS011;11787;52.018;8.570;2023-11-21T10:02:58;5.07;;;2.55;;
23236;SDS011;11787;52.018;8.570;2023-11-21T10:05:24;5.13;;;2.17;;
23236;SDS011;11787;52.018;8.570;2023-11-21T10:07:50;3.33;;;1.75;;
23236;SDS011;11787;52.018;8.570;2023-11-21T10:10:17;6.15;;;3.75;;
23236;SDS011;11787;52.018;8.570;2023-11-21T10:12:49;3.10;;;2.03;;
23236;SDS011;11787;52.018;8.570;2023-11-21T10:15:20;3.03;;;1.90;;
23236;SDS011;11787;52.018;8.570;2023-11-21T10:17:47;7.18;;;1.90;;
23236;SDS011;11787;52.018;8.570;2023-11-21T10:20:14;3.08;;;1.63;;
23236;SDS011;11787;52.018;8.570;2023-11-21T10:22:40;2.22;;;1.58;;
23236;SDS011;11787;52.018;8.570;2023-11-21T10:25:07;2.85;;;1.52;;
23236;SDS011;11787;52.018;8.570;2023-11-21T10:27:39;2.70;;;1.48;;
23236;SDS011;11787;52.018;8.570;2023-11-21T10:30:06;2.35;;;1.30;;
23236;SDS011;11787;52.018;8.570;2023-11-21T10:32:33;3.10;;;1.23;;
23236;SDS011;11787;52.018;8.570;2023-11-21T10:34:59;4.32;;;2.22;;
23236;SDS011;11787;52.018;8.570;2023-11-21T10:37:34;1.50;;;1.02;;
23236;SDS011;11787;52.018;8.570;2023-11-21T10:40:06;1.42;;;1.00;;
23236;SDS011;11787;52.018;8.570;2023-11-21T10:42:36;2.47;;;1.38;;
23236;SDS011;11787;52.018;8.570;2023-11-21T10:45:03;3.67;;;1.50;;
23236;SDS011;11787;52.018;8.570;2023-11-21T10:47:34;2.47;;;1.42;;
23236;SDS011;11787;52.018;8.570;2023-11-21T10:50:01;2.13;;;1.52;;
23236;SDS011;11787;52.018;8.570;2023-11-21T10:52:27;3.25;;;1.58;;
23236;SDS011;11787;52.018;8.570;2023-11-21T10:54:52;1.63;;;1.25;;
23236;SDS011;11787;52.018;8.570;2023-11-21T10:57:18;4.40;;;2.15;;
23236;SDS011;11787;52.018;8.570;2023-11-21T10:59:47;5.80;;;3.05;;
23236;SDS011;11787;52.018;8.570;2023-11-21T11:02:23;2.10;;;1.70;;
23236;SDS011;11787;52.018;8.570;2023-11-21T11:04:53;2.58;;;1.52;;
23236;SDS011;11787;52.018;8.570;2023-11-21T11:07:25;3.60;;;2.50;;
23236;SDS011;11787;52.018;8.570;2023-11-21T11:09:55;4.25;;;2.03;;
23236;SDS011;11787;52.018;8.570;2023-11-21T11:12:23;1.65;;;1.25;;
23236;SDS011;11787;52.018;8.570;2023-11-21T11:14:49;2.78;;;1.70;;
23236;SDS011;11787;52.018;8.570;2023-11-21T11:17:15;3.03;;;1.70;;
23236;SDS011;11787;52.018;8.570;2023-11-21T11:19:45;2.85;;;1.55;;
23236;SDS011;11787;52.018;8.570;2023-11-21T11:37:53;5.15;;;3.10;;
23236;SDS011;11787;52.018;8.570;2023-11-21T11:40:19;4.55;;;2.47;;
23236;SDS011;11787;52.018;8.570;2023-11-21T11:42:58;3.90;;;2.17;;
23236;SDS011;11787;52.018;8.570;2023-11-21T11:45:31;4.40;;;2.30;;
23236;SDS011;11787;52.018;8.570;2023-11-21T11:47:59;3.85;;;2.28;;
23236;SDS011;11787;52.018;8.570;2023-11-21T11:50:25;4.13;;;2.28;;
23236;SDS011;11787;52.018;8.570;2023-11-21T11:52:55;3.67;;;2.05;;
23236;SDS011;11787;52.018;8.570;2023-11-21T11:55:36;3.97;;;2.70;;
23236;SDS011;11787;52.018;8.570;2023-11-21T11:58:04;3.53;;;2.58;;
23236;SDS011;11787;52.018;8.570;2023-11-21T12:02:58;4.07;;;2.67;;
23236;SDS011;11787;52.018;8.570;2023-11-21T12:05:28;4.05;;;2.85;;
23236;SDS011;11787;52.018;8.570;2023-11-21T12:07:56;4.85;;;2.85;;
23236;SDS011;11787;52.018;8.570;2023-11-21T12:10:26;4.93;;;2.70;;
23236;SDS011;11787;52.018;8.570;2023-11-21T12:12:56;3.95;;;2.50;;
23236;SDS011;11787;52.018;8.570;2023-11-21T12:15:27;8.63;;;3.35;;
23236;SDS011;11787;52.018;8.570;2023-11-21T12:17:56;5.57;;;3.10;;
23236;SDS011;11787;52.018;8.570;2023-11-21T12:20:23;4.55;;;2.50;;
23236;SDS011;11787;52.018;8.570;2023-11-21T12:22:50;4.45;;;2.72;;
23236;SDS011;11787;52.018;8.570;2023-11-21T12:25:18;4.63;;;2.55;;
23236;SDS011;11787;52.018;8.570;2023-11-21T12:27:48;6.03;;;2.65;;
23236;SDS011;11787;52.018;8.570;2023-11-21T12:30:15;4.80;;;3.20;;
23236;SDS011;11787;52.018;8.570;2023-11-21T12:32:43;6.60;;;3.35;;
23236;SDS011;11787;52.018;8.570;2023-11-21T12:35:10;5.88;;;3.05;;
23236;SDS011;11787;52.018;8.570;2023-11-21T12:37:40;7.20;;;3.38;;
23236;SDS011;11787;52.018;8.570;2023-11-21T12:40:09;7.43;;;3.20;;
23236;SDS011;11787;52.018;8.570;2023-11-21T12:42:39;5.53;;;3.22;;
23236;SDS011;11787;52.018;8.570;2023-11-21T12:45:12;4.70;;;3.28;;
23236;SDS011;11787;52.018;8.570;2023-11-21T12:47:57;4.65;;;2.80;;
23236;SDS011;11787;52.018;8.570;2023-11-21T12:50:30;3.95;;;2.75;;
23236;SDS011;11787;52.018;8.570;2023-11-21T12:53:01;4.35;;;2.63;;
23236;SDS011;11787;52.018;8.570;2023-11-21T12:55:33;5.60;;;3.00;;
23236;SDS011;11787;52.018;8.570;2023-11-21T12:58:03;4.97;;;2.88;;
23236;SDS011;11787;52.018;8.570;2023-11-21T13:00:38;4.88;;;2.55;;
23236;SDS011;11787;52.018;8.570;2023-11-21T13:03:11;3.58;;;2.28;;
23236;SDS011;11787;52.018;8.570;2023-11-21T13:05:40;5.55;;;2.35;;
23236;SDS011;11787;52.018;8.570;2023-11-21T13:08:15;3.85;;;2.20;;
23236;SDS011;11787;52.018;8.570;2023-11-21T13:10:45;9.60;;;2.80;;
23236;SDS011;11787;52.018;8.570;2023-11-21T13:13:14;4.55;;;2.75;;
23236;SDS011;11787;52.018;8.570;2023-11-21T13:15:49;5.10;;;2.72;;
23236;SDS011;11787;52.018;8.570;2023-11-21T13:18:15;4.88;;;2.60;;
23236;SDS011;11787;52.018;8.570;2023-11-21T13:20:42;5.65;;;3.22;;
23236;SDS011;11787;52.018;8.570;2023-11-21T13:23:08;3.72;;;2.63;;
23236;SDS011;11787;52.018;8.570;2023-11-21T13:25:37;6.65;;;2.67;;
23236;SDS011;11787;52.018;8.570;2023-11-21T13:28:04;3.95;;;2.22;;
23236;SDS011;11787;52.018;8.570;2023-11-21T13:30:30;4.45;;;2.05;;
23236;SDS011;11787;52.018;8.570;2023-11-21T13:33:02;2.47;;;1.60;;
23236;SDS011;11787;52.018;8.570;2023-11-21T13:35:35;3.25;;;2.05;;
23236;SDS011;11787;52.018;8.570;2023-11-21T13:40:34;4.90;;;2.05;;
23236;SDS011;11787;52.018;8.570;2023-11-21T13:43:07;5.60;;;2.35;;
23236;SDS011;11787;52.018;8.570;2023-11-21T13:45:35;2.83;;;2.15;;
23236;SDS011;11787;52.018;8.570;2023-11-21T13:48:02;4.63;;;2.40;;
23236;SDS011;11787;52.018;8.570;2023-11-21T13:50:31;4.60;;;3.08;;
23236;SDS011;11787;52.018;8.570;2023-11-21T13:52:59;5.38;;;2.88;;
23236;SDS011;11787;52.018;8.570;2023-11-21T13:55:43;3.28;;;2.08;;
23236;SDS011;11787;52.018;8.570;2023-11-21T13:58:10;4.63;;;2.33;;
23236;SDS011;11787;52.018;8.570;2023-11-21T14:00:41;4.22;;;2.45;;
23236;SDS011;11787;52.018;8.570;2023-11-21T14:03:10;3.47;;;1.90;;
23236;SDS011;11787;52.018;8.570;2023-11-21T14:05:47;4.90;;;2.85;;
23236;SDS011;11787;52.018;8.570;2023-11-21T14:08:15;3.78;;;2.17;;
23236;SDS011;11787;52.018;8.570;2023-11-21T14:10:46;3.17;;;2.05;;
23236;SDS011;11787;52.018;8.570;2023-11-21T14:13:16;4.85;;;2.70;;
23236;SDS011;11787;52.018;8.570;2023-11-21T14:15:42;5.82;;;3.92;;
23236;SDS011;11787;52.018;8.570;2023-11-21T14:18:15;4.20;;;2.60;;
23236;SDS011;11787;52.018;8.570;2023-11-21T14:20:42;7.90;;;3.75;;
23236;SDS011;11787;52.018;8.570;2023-11-21T14:23:09;7.40;;;4.63;;
23236;SDS011;11787;52.018;8.570;2023-11-21T14:25:36;5.32;;;3.63;;
23236;SDS011;11787;52.018;8.570;2023-11-21T14:28:04;8.65;;;4.45;;
23236;SDS011;11787;52.018;8.570;2023-11-21T14:30:31;5.93;;;4.03;;
23236;SDS011;11787;52.018;8.570;2023-11-21T14:32:58;4.97;;;3.22;;
23236;SDS011;11787;52.018;8.570;2023-11-21T14:35:24;7.65;;;3.35;;
23236;SDS011;11787;52.018;8.570;2023-11-21T14:37:50;4.60;;;2.85;;
23236;SDS011;11787;52.018;8.570;2023-11-21T14:40:16;5.20;;;3.05;;
23236;SDS011;11787;52.018;8.570;2023-11-21T14:42:46;4.28;;;2.30;;
23236;SDS011;11787;52.018;8.570;2023-11-21T14:45:12;3.88;;;2.13;;
23236;SDS011;11787;52.018;8.570;2023-11-21T14:47:41;3.20;;;2.08;;
23236;SDS011;11787;52.018;8.570;2023-11-21T14:50:13;3.67;;;2.53;;
23236;SDS011;11787;52.018;8.570;2023-11-21T14:52:57;3.22;;;2.50;;
23236;SDS011;11787;52.018;8.570;2023-11-21T14:55:24;3.88;;;2.35;;
23236;SDS011;11787;52.018;8.570;2023-11-21T14:58:08;4.28;;;2.55;;
23236;SDS011;11787;52.018;8.570;2023-11-21T15:00:38;3.97;;;2.33;;
23236;SDS011;11787;52.018;8.570;2023-11-21T15:03:09;4.75;;;2.45;;
23236;SDS011;11787;52.018;8.570;2023-11-21T15:05:46;3.08;;;2.40;;
23236;SDS011;11787;52.018;8.570;2023-11-21T15:08:13;4.90;;;2.00;;
23236;SDS011;11787;52.018;8.570;2023-11-21T15:10:49;3.58;;;2.50;;
23236;SDS011;11787;52.018;8.570;2023-11-21T15:13:19;4.03;;;2.33;;
23236;SDS011;11787;52.018;8.570;2023-11-21T15:15:47;2.10;;;1.63;;
23236;SDS011;11787;52.018;8.570;2023-11-21T15:18:12;3.05;;;1.90;;
23236;SDS011;11787;52.018;8.570;2023-11-21T15:20:41;3.30;;;2.15;;
23236;SDS011;11787;52.018;8.570;2023-11-21T15:23:08;4.80;;;2.25;;
23236;SDS011;11787;52.018;8.570;2023-11-21T15:25:34;4.10;;;2.60;;
23236;SDS011;11787;52.018;8.570;2023-11-21T15:28:01;6.68;;;2.88;;
23236;SDS011;11787;52.018;8.570;2023-11-21T15:30:27;4.28;;;2.60;;
23236;SDS011;11787;52.018;8.570;2023-11-21T15:32:56;4.82;;;2.75;;
23236;SDS011;11787;52.018;8.570;2023-11-21T15:35:25;3.28;;;2.42;;
23236;SDS011;11787;52.018;8.570;2023-11-21T15:37:52;5.15;;;2.60;;
23236;SDS011;11787;52.018;8.570;2023-11-21T15:40:18;4.18;;;2.80;;
23236;SDS011;11787;52.018;8.570;2023-11-21T15:42:44;4.28;;;2.70;;
23236;SDS011;11787;52.018;8.570;2023-11-21T15:45:10;5.75;;;2.13;;
23236;SDS011;11787;52.018;8.570;2023-11-21T15:47:35;4.85;;;2.88;;
23236;SDS011;11787;52.018;8.570;2023-11-21T15:50:01;4.32;;;2.50;;
23236;SDS011;11787;52.018;8.570;2023-11-21T15:52:29;3.80;;;2.35;;
23236;SDS011;11787;52.018;8.570;2023-11-21T15:54:54;5.57;;;2.67;;
23236;SDS011;11787;52.018;8.570;2023-11-21T15:57:21;4.45;;;2.42;;
23236;SDS011;11787;52.018;8.570;2023-11-21T15:59:47;3.17;;;2.03;;
23236;SDS011;11787;52.018;8.570;2023-11-21T16:02:12;4.15;;;2.58;;
23236;SDS011;11787;52.018;8.570;2023-11-21T16:04:40;3.40;;;1.67;;
23236;SDS011;11787;52.018;8.570;2023-11-21T16:07:07;4.00;;;2.13;;
23236;SDS011;11787;52.018;8.570;2023-11-21T16:09:36;4.40;;;2.00;;
23236;SDS011;11787;52.018;8.570;2023-11-21T16:12:03;5.47;;;2.58;;
23236;SDS011;11787;52.018;8.570;2023-11-21T16:14:31;3.60;;;2.38;;
23236;SDS011;11787;52.018;8.570;2023-11-21T16:17:03;4.97;;;2.57;;
23236;SDS011;11787;52.018;8.570;2023-11-21T16:19:32;2.38;;;1.75;;
23236;SDS011;11787;52.018;8.570;2023-11-21T16:21:58;4.32;;;2.60;;
23236;SDS011;11787;52.018;8.570;2023-11-21T16:24:23;3.92;;;2.15;;
23236;SDS011;11787;52.018;8.570;2023-11-21T16:26:51;6.20;;;1.88;;
23236;SDS011;11787;52.018;8.570;2023-11-21T16:29:17;5.20;;;3.28;;
23236;SDS011;11787;52.018;8.570;2023-11-21T16:31:42;5.10;;;2.55;;
23236;SDS011;11787;52.018;8.570;2023-11-21T16:34:11;6.60;;;3.03;;
23236;SDS011;11787;52.018;8.570;2023-11-21T16:36:38;3.95;;;2.75;;
23236;SDS011;11787;52.018;8.570;2023-11-21T16:39:05;4.50;;;2.78;;
23236;SDS011;11787;52.018;8.570;2023-11-21T16:41:30;4.75;;;2.47;;
23236;SDS011;11787;52.018;8.570;2023-11-21T16:43:56;4.03;;;2.65;;
23236;SDS011;11787;52.018;8.570;2023-11-21T16:46:22;5.30;;;3.15;;
23236;SDS011;11787;52.018;8.570;2023-11-21T16:48:47;4.35;;;2.30;;
23236;SDS011;11787;52.018;8.570;2023-11-21T16:51:17;6.30;;;2.50;;
23236;SDS011;11787;52.018;8.570;2023-11-21T16:53:43;3.83;;;2.38;;
23236;SDS011;11787;52.018;8.570;2023-11-21T16:56:09;3.92;;;2.30;;
23236;SDS011;11787;52.018;8.570;2023-11-21T16:58:35;3.58;;;2.00;;
23236;SDS011;11787;52.018;8.570;2023-11-21T17:01:01;4.45;;;2.13;;
23236;SDS011;11787;52.018;8.570;2023-11-21T17:03:27;6.30;;;2.40;;
23236;SDS011;11787;52.018;8.570;2023-11-21T17:05:54;3.92;;;2.22;;
23236;SDS011;11787;52.018;8.570;2023-11-21T17:08:20;4.55;;;2.63;;
23236;SDS011;11787;52.018;8.570;2023-11-21T17:10:46;3.85;;;2.22;;
23236;SDS011;11787;52.018;8.570;2023-11-21T17:13:14;3.28;;;2.20;;
23236;SDS011;11787;52.018;8.570;2023-11-21T17:15:43;4.53;;;2.60;;
23236;SDS011;11787;52.018;8.570;2023-11-21T17:18:09;4.88;;;2.70;;
23236;SDS011;11787;52.018;8.570;2023-11-21T17:20:36;4.28;;;2.53;;
23236;SDS011;11787;52.018;8.570;2023-11-21T17:23:02;4.32;;;2.63;;
23236;SDS011;11787;52.018;8.570;2023-11-21T17:25:29;6.05;;;2.60;;
23236;SDS011;11787;52.018;8.570;2023-11-21T17:27:55;5.82;;;2.88;;
23236;SDS011;11787;52.018;8.570;2023-11-21T17:30:21;5.20;;;2.63;;
23236;SDS011;11787;52.018;8.570;2023-11-21T17:32:47;3.58;;;2.17;;
23236;SDS011;11787;52.018;8.570;2023-11-21T17:35:13;5.55;;;2.65;;
23236;SDS011;11787;52.018;8.570;2023-11-21T17:37:39;3.75;;;2.38;;
23236;SDS011;11787;52.018;8.570;2023-11-21T17:40:05;4.40;;;2.47;;
23236;SDS011;11787;52.018;8.570;2023-11-21T17:42:32;3.72;;;2.30;;
23236;SDS011;11787;52.018;8.570;2023-11-21T17:44:58;4.30;;;2.10;;
23236;SDS011;11787;52.018;8.570;2023-11-21T17:47:24;6.40;;;2.25;;
23236;SDS011;11787;52.018;8.570;2023-11-21T17:49:51;6.43;;;2.17;;
23236;SDS011;11787;52.018;8.570;2023-11-21T17:52:18;2.70;;;2.10;;
23236;SDS011;11787;52.018;8.570;2023-11-21T17:54:45;5.00;;;3.13;;
23236;SDS011;11787;52.018;8.570;2023-11-21T17:57:11;4.03;;;2.10;;